Back to top

Yellowstone, WY weather

Yellowstone (RAMOS), Yellowstone, WY: 7/22/2019 13:56
Visibilityunavailableclear sky
View 7-Day Forecast
Area Summary
Sky/Clouds
Weather [last 24 hours]None
Pressure30.45 in.Hg (1031 hPa)
Dew Point46.9 °F (8.3 °C)
Relative Humidity39.5 %
Temperature73 °F (22.8 °C)red thermometer
Reading TimeMinimum to Maximum Temperature
6-hr ending 7/22@11:5641 °F to 73 °F (5 °C to 22.8 °C)
6-hr ending 7/22@05:5641 °F to 48.9 °F (5 °C to 9.4 °C)
6-hr ending 7/21@23:5648.9 °F to 75.9 °F (9.4 °C to 24.4 °C)
6-hr ending 7/21@17:5663 °F to 79 °F (17.2 °C to 26.1 °C)
24-hr ending 7/22@00:5636 °F to 79 °F (2.2 °C to 26.1 °C)
Wind0 MPH (0 KT) green arrow pointing at 0 degrees
Wind FromNorth (000 Degrees)
Twilight Begins05:22Sunshine Yesterday
Sunrise05:57N/A
Sunset20:59
Twilight Ends21:34
METARKP60 221956Z AUTO 00000KT 23/08 A3045 RMK AO1 SLP230 T02280083
Tags: